Time;durP1;ratioP1;P1;durP2;ratioP2;P2;SDS_P1;SDS_P2;PMS_P1;PMS_P2;Temp;Humidity;BMP_temperature;BMP_pressure;BME280_temperature;BME280_humidity;BME280_pressure;Samples;Min_cycle;Max_cycle;Signal;HPM_P1;HPM_P2
2023/12/08 00:00:23;;;;;;;18.85;12.10;;;4.10;99.90;;;;;;4995561;28;20038;-89
2023/12/08 00:02:50;;;;;;;18.27;13.38;;;4.10;99.90;;;;;;4991729;28;20025;-88
2023/12/08 00:05:15;;;;;;;17.40;12.32;;;4.10;99.90;;;;;;5017194;28;20123;-87
2023/12/08 00:07:41;;;;;;;16.38;11.38;;;4.10;99.90;;;;;;5018923;28;20011;-89
2023/12/08 00:10:07;;;;;;;19.95;12.77;;;4.10;99.90;;;;;;5012015;28;20045;-89
2023/12/08 00:12:32;;;;;;;17.35;12.05;;;4.10;99.90;;;;;;4980053;28;20065;-90
2023/12/08 00:14:58;;;;;;;17.42;12.88;;;4.10;99.90;;;;;;4995514;28;20150;-89
2023/12/08 00:17:24;;;;;;;17.00;12.45;;;4.10;99.90;;;;;;4979355;28;20034;-88
2023/12/08 00:19:49;;;;;;;17.67;12.60;;;4.10;99.90;;;;;;4995073;28;20058;-90
2023/12/08 00:22:15;;;;;;;16.73;12.43;;;4.10;99.90;;;;;;4995273;28;20034;-89
2023/12/08 00:24:41;;;;;;;16.77;12.07;;;4.10;99.90;;;;;;4995397;28;20030;-89
2023/12/08 00:27:07;;;;;;;16.92;11.57;;;4.10;99.90;;;;;;4994827;28;20109;-88
2023/12/08 00:29:33;;;;;;;14.90;11.43;;;4.10;99.90;;;;;;4994846;28;20068;-88
2023/12/08 00:31:58;;;;;;;16.02;12.25;;;4.10;99.90;;;;;;4994469;28;20080;-88
2023/12/08 00:34:24;;;;;;;16.55;11.98;;;4.10;99.90;;;;;;4994739;28;20157;-91
2023/12/08 00:36:50;;;;;;;17.92;12.77;;;4.10;99.90;;;;;;4994474;28;20386;-90
2023/12/08 00:39:17;;;;;;;16.60;11.45;;;4.10;99.90;;;;;;4994458;28;20034;-88
2023/12/08 00:41:42;;;;;;;18.73;12.32;;;4.10;99.90;;;;;;4995084;28;20046;-90
2023/12/08 00:44:08;;;;;;;16.17;11.30;;;4.20;99.90;;;;;;4995354;28;20031;-90
2023/12/08 00:46:34;;;;;;;14.90;10.80;;;4.10;99.90;;;;;;4995629;28;20034;-90
2023/12/08 00:49:00;;;;;;;15.75;11.43;;;4.10;99.90;;;;;;4994931;28;20023;-90
2023/12/08 00:51:25;;;;;;;17.02;12.00;;;4.20;99.90;;;;;;4996032;28;20054;-90
2023/12/08 00:53:51;;;;;;;16.17;11.35;;;4.10;99.90;;;;;;4995045;28;20029;-90
2023/12/08 00:56:17;;;;;;;15.15;11.07;;;4.10;99.90;;;;;;4994675;28;20035;-90
2023/12/08 00:58:43;;;;;;;15.27;11.70;;;4.10;99.90;;;;;;4979070;28;20039;-90
2023/12/08 01:01:09;;;;;;;16.75;11.60;;;4.20;99.90;;;;;;4994734;28;20088;-89
2023/12/08 01:03:35;;;;;;;16.45;11.70;;;4.20;99.90;;;;;;4978359;28;20454;-91
2023/12/08 01:06:00;;;;;;;15.38;11.30;;;4.20;99.90;;;;;;4994402;28;20032;-86
2023/12/08 01:08:26;;;;;;;16.25;10.63;;;4.10;99.90;;;;;;4977970;28;20039;-89
2023/12/08 01:10:52;;;;;;;16.65;11.20;;;4.20;99.90;;;;;;4977474;28;20498;-89
2023/12/08 01:13:17;;;;;;;13.50;10.35;;;4.20;99.90;;;;;;4994034;28;20483;-88
2023/12/08 01:15:43;;;;;;;16.17;11.38;;;4.20;99.90;;;;;;4994035;28;20034;-91
2023/12/08 01:18:09;;;;;;;13.35;10.13;;;4.20;99.90;;;;;;4994280;28;20037;-91
2023/12/08 01:20:36;;;;;;;15.50;10.60;;;4.20;99.90;;;;;;4994353;28;20038;-91
2023/12/08 01:23:01;;;;;;;14.32;11.23;;;4.20;99.90;;;;;;5008022;28;20074;-91
2023/12/08 01:25:27;;;;;;;12.57;9.48;;;4.20;99.90;;;;;;5017697;28;20011;-90
2023/12/08 01:27:54;;;;;;;13.10;10.02;;;4.20;99.90;;;;;;4985460;28;20031;-89
2023/12/08 01:30:20;;;;;;;13.52;10.07;;;4.20;99.90;;;;;;5016137;28;20010;-91
2023/12/08 01:32:45;;;;;;;14.30;10.50;;;4.20;99.90;;;;;;4995149;28;20030;-89
2023/12/08 01:35:11;;;;;;;13.95;10.52;;;4.20;99.90;;;;;;4994835;28;20418;-90
2023/12/08 01:37:37;;;;;;;14.23;10.25;;;4.20;99.90;;;;;;4978314;28;20069;-90
2023/12/08 01:40:03;;;;;;;14.63;10.52;;;4.20;99.90;;;;;;4978241;28;20237;-90
2023/12/08 01:42:28;;;;;;;13.55;9.70;;;4.30;99.90;;;;;;4995138;28;20037;-90
2023/12/08 01:44:54;;;;;;;13.80;10.02;;;4.30;99.90;;;;;;4994268;28;20026;-89
2023/12/08 01:47:20;;;;;;;13.35;10.20;;;4.30;99.90;;;;;;4994276;28;20026;-90
2023/12/08 01:49:46;;;;;;;13.27;10.27;;;4.30;99.90;;;;;;4995483;28;20030;-89
2023/12/08 01:52:19;;;;;;;13.38;9.90;;;4.30;99.90;;;;;;4978459;28;20026;-89
2023/12/08 01:54:45;;;;;;;12.73;9.93;;;4.40;99.90;;;;;;4995022;28;20033;-90
2023/12/08 01:57:11;;;;;;;15.52;10.73;;;4.30;99.90;;;;;;4980202;28;20027;-90
2023/12/08 01:59:36;;;;;;;13.32;9.55;;;4.40;99.90;;;;;;4997917;28;20457;-91
2023/12/08 02:02:02;;;;;;;13.38;10.52;;;4.40;99.90;;;;;;4965532;28;20034;-88
2023/12/08 02:04:28;;;;;;;14.13;10.20;;;4.40;99.90;;;;;;4997883;28;20061;-89
2023/12/08 02:06:55;;;;;;;13.10;10.25;;;4.40;99.90;;;;;;4998014;28;20030;-90
2023/12/08 02:09:21;;;;;;;11.55;8.93;;;4.40;99.90;;;;;;4997970;28;20022;-89
2023/12/08 02:11:46;;;;;;;13.50;10.13;;;4.40;99.90;;;;;;4997431;28;20567;-89
2023/12/08 02:14:13;;;;;;;12.52;9.80;;;4.40;99.90;;;;;;4998462;28;20034;-90
2023/12/08 02:17:05;;;;;;;14.10;9.68;;;4.40;99.90;;;;;;4998462;28;20113;-90
2023/12/08 02:19:31;;;;;;;;;;;4.40;99.90;;;;;;4997971;28;20046;-89
2023/12/08 02:21:57;;;;;;;14.90;10.10;;;4.40;99.90;;;;;;4998590;28;19910;-89
2023/12/08 02:24:22;;;;;;;14.55;9.73;;;4.40;99.90;;;;;;4997513;28;20026;-90
2023/12/08 02:26:49;;;;;;;12.73;10.02;;;4.40;99.90;;;;;;4996744;28;20061;-90
2023/12/08 02:29:15;;;;;;;13.80;10.10;;;4.40;99.90;;;;;;4980740;28;20533;-90
2023/12/08 02:32:13;;;;;;;16.15;11.43;;;4.40;99.90;;;;;;4981172;28;20458;-90
2023/12/08 02:34:41;;;;;;;13.63;10.40;;;4.40;99.90;;;;;;4988434;28;20045;-90
2023/12/08 02:37:08;;;;;;;14.75;11.15;;;4.40;99.90;;;;;;4998208;28;20026;-90
2023/12/08 02:39:35;;;;;;;15.10;10.98;;;4.40;99.90;;;;;;4997272;28;20044;-91
2023/12/08 02:42:02;;;;;;;16.55;11.45;;;4.40;99.90;;;;;;4998618;28;20034;-90
2023/12/08 02:44:27;;;;;;;14.75;10.93;;;4.30;99.90;;;;;;5015738;28;20015;-82
2023/12/08 02:46:53;;;;;;;14.50;11.00;;;4.30;99.90;;;;;;5003791;28;20069;-90
2023/12/08 02:49:19;;;;;;;13.93;10.50;;;4.40;99.90;;;;;;5020050;28;20027;-86
2023/12/08 02:51:44;;;;;;;14.20;11.15;;;4.30;99.90;;;;;;5011105;28;20089;-90
2023/12/08 02:54:10;;;;;;;16.27;11.55;;;4.30;99.90;;;;;;4997762;28;20027;-91
2023/12/08 02:56:35;;;;;;;14.52;10.90;;;4.30;99.90;;;;;;4996737;28;20037;-93
2023/12/08 02:59:01;;;;;;;15.65;10.50;;;4.30;99.90;;;;;;4997791;28;20045;-91
2023/12/08 03:01:27;;;;;;;14.88;11.25;;;4.30;99.90;;;;;;4996495;28;20034;-92
2023/12/08 03:03:52;;;;;;;14.25;10.48;;;4.30;99.90;;;;;;4996690;28;20045;-90
2023/12/08 03:06:18;;;;;;;15.52;11.73;;;4.30;99.90;;;;;;4996755;28;20030;-89
2023/12/08 03:08:43;;;;;;;14.65;11.85;;;4.30;99.90;;;;;;4979102;28;20418;-91
2023/12/08 03:11:09;;;;;;;14.23;10.65;;;4.30;99.90;;;;;;4996460;28;20093;-91
2023/12/08 03:13:35;;;;;;;15.25;10.80;;;4.30;99.90;;;;;;4996307;28;20462;-91
2023/12/08 03:16:00;;;;;;;14.70;9.93;;;4.20;99.90;;;;;;4996641;28;20443;-90
2023/12/08 03:18:26;;;;;;;16.55;12.52;;;4.20;99.90;;;;;;4996284;28;20031;-91
2023/12/08 03:20:53;;;;;;;15.80;11.38;;;4.10;99.90;;;;;;4996233;28;20031;-91
2023/12/08 03:23:18;;;;;;;17.25;12.07;;;4.10;99.90;;;;;;4980134;28;20030;-83
2023/12/08 03:25:44;;;;;;;15.80;12.10;;;4.10;99.90;;;;;;4980354;28;20031;-90
2023/12/08 03:28:10;;;;;;;16.77;12.25;;;4.10;99.90;;;;;;4996339;28;20114;-91
2023/12/08 03:30:35;;;;;;;15.73;12.00;;;4.10;99.90;;;;;;4995858;28;20069;-89
2023/12/08 03:33:01;;;;;;;15.15;11.27;;;4.10;99.90;;;;;;4996980;28;20035;-89
2023/12/08 03:35:27;;;;;;;15.25;11.38;;;4.10;99.90;;;;;;4979512;28;20177;-91
2023/12/08 03:37:52;;;;;;;15.32;11.15;;;4.10;99.90;;;;;;4996759;28;20037;-89
2023/12/08 03:40:18;;;;;;;17.35;12.95;;;4.10;99.90;;;;;;4979386;28;20069;-89
2023/12/08 03:42:44;;;;;;;19.75;14.27;;;4.10;99.90;;;;;;4995430;28;20467;-91
2023/12/08 03:45:09;;;;;;;19.52;13.60;;;4.00;99.90;;;;;;4995993;28;20065;-90
2023/12/08 03:47:35;;;;;;;18.23;13.20;;;4.00;99.90;;;;;;4995387;28;20022;-90
2023/12/08 03:50:01;;;;;;;15.73;12.27;;;4.00;99.90;;;;;;4995484;28;20041;-91
2023/12/08 03:52:26;;;;;;;16.33;12.25;;;4.00;99.90;;;;;;4996760;28;20057;-91
2023/12/08 03:54:52;;;;;;;17.55;12.70;;;4.00;99.90;;;;;;4996493;28;20046;-89
2023/12/08 03:57:18;;;;;;;18.65;13.77;;;4.10;99.90;;;;;;4979525;28;20026;-89
2023/12/08 03:59:43;;;;;;;17.20;12.85;;;4.10;99.90;;;;;;4996506;28;20063;-90
2023/12/08 04:02:09;;;;;;;16.48;12.50;;;4.10;99.90;;;;;;4996306;28;20038;-91
2023/12/08 04:04:34;;;;;;;18.58;13.18;;;4.10;99.90;;;;;;5009841;28;20037;-90
2023/12/08 04:07:00;;;;;;;16.85;11.98;;;4.20;99.90;;;;;;5018725;28;20021;-89
2023/12/08 04:09:26;;;;;;;19.02;13.07;;;4.20;99.90;;;;;;5018787;28;20033;-83
2023/12/08 04:11:51;;;;;;;17.05;12.82;;;4.20;99.90;;;;;;5018562;28;20049;-91
2023/12/08 04:14:17;;;;;;;17.55;13.10;;;4.20;99.90;;;;;;4999946;28;20050;-88
2023/12/08 04:16:43;;;;;;;17.48;12.48;;;4.20;99.90;;;;;;5004285;28;20038;-88
2023/12/08 04:19:12;;;;;;;16.10;12.20;;;4.20;99.90;;;;;;4978463;28;20030;-90
2023/12/08 04:21:38;;;;;;;17.77;12.95;;;4.30;99.90;;;;;;4995112;28;20141;-90
2023/12/08 04:24:04;;;;;;;16.80;12.55;;;4.30;99.90;;;;;;4995326;28;20057;-89
2023/12/08 04:26:30;;;;;;;15.75;12.18;;;4.20;99.90;;;;;;4994773;28;20033;-90
2023/12/08 04:28:56;;;;;;;17.98;12.00;;;4.20;99.90;;;;;;4995374;28;20066;-89
2023/12/08 04:31:22;;;;;;;17.10;12.80;;;4.20;99.90;;;;;;4979038;28;20487;-92
2023/12/08 04:33:48;;;;;;;14.88;11.48;;;4.30;99.90;;;;;;4978495;28;20033;-90
2023/12/08 04:36:13;;;;;;;16.50;11.93;;;4.30;99.90;;;;;;4978947;28;20034;-90
2023/12/08 04:38:39;;;;;;;15.15;11.18;;;4.30;99.90;;;;;;4978255;28;20037;-90
2023/12/08 04:41:05;;;;;;;15.63;11.77;;;4.30;99.90;;;;;;4995019;28;20165;-89
2023/12/08 04:43:31;;;;;;;17.48;11.93;;;4.30;99.90;;;;;;4994385;28;20031;-90
2023/12/08 04:45:59;;;;;;;18.08;12.65;;;4.30;99.90;;;;;;4994676;28;20038;-89
2023/12/08 04:48:25;;;;;;;14.77;11.65;;;4.30;99.90;;;;;;4979166;28;20102;-88
2023/12/08 04:50:51;;;;;;;17.77;12.52;;;4.30;99.90;;;;;;4994454;28;20027;-89
2023/12/08 04:53:17;;;;;;;18.13;12.15;;;4.30;99.90;;;;;;4994963;28;20023;-89
2023/12/08 04:55:43;;;;;;;16.67;12.27;;;4.30;99.90;;;;;;4995420;28;20466;-89
2023/12/08 04:58:09;;;;;;;17.15;13.10;;;4.40;99.90;;;;;;4994224;28;20061;-88
2023/12/08 05:00:34;;;;;;;16.85;12.82;;;4.30;99.90;;;;;;4994439;28;20030;-90
2023/12/08 05:03:00;;;;;;;16.08;12.68;;;4.40;99.90;;;;;;4978175;28;20031;-88
2023/12/08 05:05:26;;;;;;;17.17;13.35;;;4.30;99.90;;;;;;4994802;28;20038;-89
2023/12/08 05:07:52;;;;;;;19.15;13.35;;;4.40;99.90;;;;;;4994526;28;20038;-88
2023/12/08 05:10:18;;;;;;;18.50;12.65;;;4.40;99.90;;;;;;4978066;28;20603;-89
2023/12/08 05:12:44;;;;;;;20.02;13.57;;;4.30;99.90;;;;;;4995570;28;20136;-89
2023/12/08 05:15:10;;;;;;;16.98;13.10;;;4.30;99.90;;;;;;4995612;28;20035;-89
2023/12/08 05:17:35;;;;;;;18.15;13.20;;;4.30;99.90;;;;;;4994262;28;20107;-89
2023/12/08 05:20:05;;;;;;;20.08;13.80;;;4.40;99.90;;;;;;4994402;28;20022;-88
2023/12/08 05:22:31;;;;;;;19.95;14.02;;;4.40;99.90;;;;;;4994746;28;20030;-90
2023/12/08 05:24:57;;;;;;;18.20;13.88;;;4.40;99.90;;;;;;5003375;28;20045;-88
2023/12/08 05:27:22;;;;;;;16.58;13.27;;;4.40;99.90;;;;;;5017666;28;20086;-88
2023/12/08 05:29:48;;;;;;;19.77;14.35;;;4.30;99.90;;;;;;5001563;28;20033;-88
2023/12/08 05:32:13;;;;;;;18.95;13.80;;;4.30;99.90;;;;;;5020111;28;20086;-89
2023/12/08 05:34:39;;;;;;;19.45;13.15;;;4.20;99.90;;;;;;5000032;28;20045;-90
2023/12/08 05:37:05;;;;;;;19.00;13.45;;;4.30;99.90;;;;;;4998550;28;20031;-90
2023/12/08 05:39:31;;;;;;;18.13;13.85;;;4.30;99.90;;;;;;4998028;28;20063;-90
2023/12/08 05:41:58;;;;;;;20.65;15.07;;;4.30;99.90;;;;;;4998094;28;20030;-88
2023/12/08 05:44:24;;;;;;;17.95;12.48;;;4.30;99.90;;;;;;4998063;28;20409;-89
2023/12/08 05:46:49;;;;;;;19.23;14.10;;;4.30;99.90;;;;;;4997871;28;20031;-88
2023/12/08 05:49:17;;;;;;;18.90;14.43;;;4.40;99.90;;;;;;4998169;28;20042;-88
2023/12/08 05:51:43;;;;;;;23.13;15.38;;;4.40;99.90;;;;;;4981692;28;20033;-88
2023/12/08 05:54:09;;;;;;;19.35;13.90;;;4.40;99.90;;;;;;4981394;28;20030;-87
2023/12/08 05:56:35;;;;;;;19.25;13.63;;;4.30;99.90;;;;;;4981209;28;20022;-87
2023/12/08 05:59:00;;;;;;;18.15;13.43;;;4.30;99.90;;;;;;4997514;28;20039;-88
2023/12/08 06:01:26;;;;;;;20.33;14.20;;;4.30;99.90;;;;;;4998504;28;20031;-88
2023/12/08 06:03:51;;;;;;;21.38;15.43;;;4.30;99.90;;;;;;4981211;28;20382;-87
2023/12/08 06:06:17;;;;;;;19.42;14.43;;;4.30;99.90;;;;;;4980865;28;20050;-89
2023/12/08 06:08:43;;;;;;;18.85;13.63;;;4.40;99.90;;;;;;4996014;28;20034;-87
2023/12/08 06:11:08;;;;;;;19.45;13.57;;;4.40;99.90;;;;;;4996691;28;20129;-89
2023/12/08 06:13:34;;;;;;;20.23;14.38;;;4.40;99.90;;;;;;4996511;28;20026;-85
2023/12/08 06:16:01;;;;;;;20.00;14.00;;;4.40;99.90;;;;;;4980136;28;20023;-87
2023/12/08 06:18:26;;;;;;;20.60;15.23;;;4.50;99.90;;;;;;4980256;28;20030;-84
2023/12/08 06:20:52;;;;;;;22.25;15.57;;;4.40;99.90;;;;;;4996971;28;20117;-90
2023/12/08 06:23:18;;;;;;;20.67;15.15;;;4.40;99.90;;;;;;4997656;28;20042;-87
2023/12/08 06:25:43;;;;;;;19.60;15.00;;;4.40;99.90;;;;;;4981022;28;20065;-88
2023/12/08 06:28:09;;;;;;;21.63;15.27;;;4.40;99.90;;;;;;4980012;28;20526;-86
2023/12/08 06:30:35;;;;;;;20.73;14.63;;;4.40;99.90;;;;;;4997557;28;20038;-89
2023/12/08 06:33:00;;;;;;;21.27;15.27;;;4.40;99.90;;;;;;4996306;28;20136;-87
2023/12/08 06:35:26;;;;;;;21.83;13.82;;;4.40;99.90;;;;;;4997430;28;20037;-85
2023/12/08 06:37:51;;;;;;;21.27;14.60;;;4.50;99.90;;;;;;4979999;28;20030;-87
2023/12/08 06:40:17;;;;;;;19.85;15.32;;;4.50;99.90;;;;;;4996353;28;20122;-87
2023/12/08 06:42:46;;;;;;;20.77;14.80;;;4.50;99.90;;;;;;4980105;28;20038;-83
2023/12/08 06:45:11;;;;;;;22.85;16.30;;;4.50;99.90;;;;;;4999410;28;20034;-87
2023/12/08 06:47:37;;;;;;;21.10;15.30;;;4.50;99.90;;;;;;5019391;28;20113;-86
2023/12/08 06:50:03;;;;;;;23.50;16.92;;;4.50;99.90;;;;;;5019808;28;20022;-84
2023/12/08 06:52:31;;;;;;;22.75;15.48;;;4.50;99.90;;;;;;5019283;28;20025;-86
2023/12/08 06:54:56;;;;;;;21.05;15.13;;;4.50;99.90;;;;;;4990306;28;20422;-88
2023/12/08 06:57:22;;;;;;;21.50;15.38;;;4.50;99.90;;;;;;4997145;28;20030;-88
2023/12/08 06:59:48;;;;;;;20.77;15.32;;;4.50;99.90;;;;;;4996308;28;20039;-88
2023/12/08 07:02:14;;;;;;;20.83;15.55;;;4.40;99.90;;;;;;4996580;28;20410;-84
2023/12/08 07:04:40;;;;;;;24.10;16.25;;;4.50;99.90;;;;;;4996917;28;20125;-88
2023/12/08 07:07:05;;;;;;;22.73;15.00;;;4.50;99.90;;;;;;4996398;28;20062;-89
2023/12/08 07:09:31;;;;;;;19.88;15.05;;;4.50;99.90;;;;;;4996661;28;20057;-89
2023/12/08 07:11:58;;;;;;;22.55;16.70;;;4.50;99.90;;;;;;4996040;28;20117;-88
2023/12/08 07:14:24;;;;;;;19.80;15.25;;;4.50;99.90;;;;;;4997036;28;20046;-91
2023/12/08 07:16:50;;;;;;;21.58;15.32;;;4.50;99.90;;;;;;4996158;28;20030;-89
2023/12/08 07:19:15;;;;;;;22.58;16.65;;;4.50;99.90;;;;;;4995734;28;20081;-89
2023/12/08 07:21:44;;;;;;;24.13;16.02;;;4.60;99.90;;;;;;4997297;28;20034;-89
2023/12/08 07:24:10;;;;;;;22.30;15.80;;;4.60;99.90;;;;;;4979905;28;20026;-89
2023/12/08 07:26:37;;;;;;;22.83;15.85;;;4.60;99.90;;;;;;4996287;28;20084;-90
2023/12/08 07:29:02;;;;;;;21.65;15.63;;;4.60;99.90;;;;;;4997183;28;20027;-87
2023/12/08 07:31:28;;;;;;;21.60;15.95;;;4.60;99.90;;;;;;4995804;28;20030;-89
2023/12/08 07:33:54;;;;;;;21.10;16.92;;;4.60;99.90;;;;;;4979364;28;20030;-90
2023/12/08 07:36:20;;;;;;;20.15;14.77;;;4.70;99.90;;;;;;4995634;28;20030;-87
2023/12/08 07:38:46;;;;;;;22.92;15.45;;;4.60;99.90;;;;;;4979454;28;20037;-90
2023/12/08 07:41:11;;;;;;;23.67;15.57;;;4.60;99.90;;;;;;4995610;28;20038;-89
2023/12/08 07:43:37;;;;;;;25.20;15.68;;;4.60;99.90;;;;;;4979356;28;20085;-89
2023/12/08 07:46:03;;;;;;;21.88;15.63;;;4.70;99.90;;;;;;4979182;28;20153;-89
2023/12/08 07:48:29;;;;;;;22.02;15.10;;;4.70;99.90;;;;;;4996767;28;20110;-89
2023/12/08 07:50:55;;;;;;;21.80;16.35;;;4.70;99.90;;;;;;4979447;28;20062;-88
2023/12/08 07:53:20;;;;;;;22.83;16.50;;;4.70;99.90;;;;;;4996515;28;20109;-89
2023/12/08 07:55:46;;;;;;;21.65;15.00;;;4.80;99.90;;;;;;4996349;28;20462;-89
2023/12/08 07:58:12;;;;;;;24.05;16.25;;;4.80;99.90;;;;;;4995682;28;20257;-89
2023/12/08 08:00:37;;;;;;;22.85;16.20;;;4.80;99.90;;;;;;4979308;28;20030;-90
2023/12/08 08:03:04;;;;;;;19.92;15.43;;;4.80;99.90;;;;;;4979278;28;20041;-89
2023/12/08 08:05:30;;;;;;;21.20;15.68;;;4.80;99.90;;;;;;4979997;28;20034;-85
2023/12/08 08:07:56;;;;;;;25.38;15.93;;;4.90;99.90;;;;;;5012139;28;20119;-83
2023/12/08 08:10:21;;;;;;;21.20;14.73;;;4.90;99.90;;;;;;5018922;28;20018;-87
2023/12/08 08:12:47;;;;;;;19.55;15.00;;;4.90;99.90;;;;;;5019192;28;20030;-89
2023/12/08 08:15:13;;;;;;;20.98;14.15;;;4.90;99.90;;;;;;5013594;28;20031;-89
2023/12/08 08:17:38;;;;;;;25.58;15.27;;;4.90;99.90;;;;;;4979586;28;20470;-89
2023/12/08 08:20:05;;;;;;;22.33;15.88;;;5.00;99.90;;;;;;4995320;28;20034;-89
2023/12/08 08:22:32;;;;;;;23.70;16.30;;;5.00;99.90;;;;;;4995055;28;20041;-88
2023/12/08 08:24:58;;;;;;;23.27;15.50;;;5.00;99.90;;;;;;4994908;28;20511;-88
2023/12/08 08:27:25;;;;;;;21.45;15.10;;;5.00;99.90;;;;;;4996030;28;20057;-89
2023/12/08 08:29:50;;;;;;;23.88;15.55;;;5.00;99.90;;;;;;4994436;28;20035;-88
2023/12/08 08:32:17;;;;;;;24.20;15.70;;;5.00;99.90;;;;;;4994465;28;20037;-87
2023/12/08 08:34:43;;;;;;;21.35;15.50;;;5.00;99.90;;;;;;4994740;28;20081;-88
2023/12/08 08:37:09;;;;;;;21.98;15.52;;;5.00;99.90;;;;;;4994351;28;20066;-87
2023/12/08 08:39:35;;;;;;;21.85;15.10;;;5.00;99.90;;;;;;4994511;28;20062;-88
2023/12/08 08:42:00;;;;;;;22.67;15.15;;;5.00;99.90;;;;;;4994374;28;20117;-87
2023/12/08 08:44:27;;;;;;;19.90;14.55;;;5.00;99.90;;;;;;4994648;28;20023;-88
2023/12/08 08:46:53;;;;;;;24.05;15.52;;;5.00;99.90;;;;;;4995382;28;20406;-86
2023/12/08 08:49:19;;;;;;;21.45;15.63;;;5.10;99.90;;;;;;4978408;28;20042;-88
2023/12/08 08:51:45;;;;;;;21.08;15.13;;;5.10;99.90;;;;;;4995652;28;20035;-89
2023/12/08 08:54:10;;;;;;;20.73;14.80;;;5.10;99.90;;;;;;4994525;28;20065;-89
2023/12/08 08:56:36;;;;;;;22.23;15.30;;;5.10;99.90;;;;;;4977832;28;20026;-90
2023/12/08 08:59:03;;;;;;;20.20;14.13;;;5.20;99.90;;;;;;4993765;28;20034;-88
2023/12/08 09:01:28;;;;;;;20.13;14.23;;;5.20;99.90;;;;;;4994115;28;20092;-85
2023/12/08 09:03:54;;;;;;;20.55;14.18;;;5.20;99.90;;;;;;4995451;28;20406;-89
2023/12/08 09:06:20;;;;;;;20.13;14.63;;;5.20;99.90;;;;;;4997105;28;20034;-88
2023/12/08 09:08:45;;;;;;;22.23;14.52;;;5.30;99.90;;;;;;4998285;28;20034;-88
2023/12/08 09:11:12;;;;;;;18.73;14.48;;;5.30;99.90;;;;;;4998933;28;20519;-88
2023/12/08 09:13:38;;;;;;;18.48;13.60;;;5.30;99.90;;;;;;4998449;28;20030;-89
2023/12/08 09:16:04;;;;;;;17.90;13.88;;;5.30;99.90;;;;;;4999468;28;20090;-85
2023/12/08 09:18:30;;;;;;;18.95;13.50;;;5.30;99.90;;;;;;4982315;28;20038;-88
2023/12/08 09:20:56;;;;;;;21.55;14.27;;;5.30;99.90;;;;;;4999429;28;20409;-87
2023/12/08 09:23:22;;;;;;;20.20;13.63;;;5.30;99.90;;;;;;4982443;28;20034;-88
2023/12/08 09:25:47;;;;;;;20.15;13.73;;;5.40;99.90;;;;;;4999238;28;20030;-88
2023/12/08 09:28:13;;;;;;;19.08;13.88;;;5.40;99.90;;;;;;4998993;28;20042;-88
2023/12/08 09:30:39;;;;;;;19.60;13.32;;;5.40;99.90;;;;;;5017006;28;20033;-88
2023/12/08 09:33:04;;;;;;;19.27;13.55;;;5.40;99.90;;;;;;5005433;28;20062;-88
2023/12/08 09:35:30;;;;;;;19.58;13.23;;;5.50;99.90;;;;;;5022103;28;20045;-83
2023/12/08 09:37:56;;;;;;;18.90;13.30;;;5.50;99.90;;;;;;5000781;28;20478;-85
2023/12/08 09:40:24;;;;;;;18.83;13.18;;;5.50;99.90;;;;;;4998809;28;20089;-88
2023/12/08 09:42:57;;;;;;;18.73;12.98;;;5.50;99.90;;;;;;4982354;28;20085;-87
2023/12/08 09:45:23;;;;;;;15.32;12.00;;;5.50;99.90;;;;;;4998304;28;20037;-87
2023/12/08 09:47:54;;;;;;;21.00;13.77;;;5.50;99.90;;;;;;4981445;28;20031;-88
2023/12/08 09:50:20;;;;;;;18.08;13.23;;;5.60;99.90;;;;;;4997802;28;20032;-87
2023/12/08 09:52:46;;;;;;;21.77;13.88;;;5.60;99.90;;;;;;4997335;28;20030;-89
2023/12/08 09:55:13;;;;;;;21.10;14.38;;;5.60;99.90;;;;;;4998338;28;20030;-89
2023/12/08 09:57:43;;;;;;;23.48;15.07;;;5.60;99.90;;;;;;4997691;28;20105;-87
2023/12/08 10:00:13;;;;;;;20.20;14.47;;;5.60;99.90;;;;;;4997133;28;20030;-87
2023/12/08 10:02:40;;;;;;;25.85;17.08;;;5.60;99.90;;;;;;4997740;28;20054;-88
2023/12/08 10:05:07;;;;;;;26.95;16.80;;;5.70;99.90;;;;;;4997617;28;20031;-87
2023/12/08 10:07:34;;;;;;;25.33;16.83;;;5.70;99.90;;;;;;4998404;28;20031;-88
2023/12/08 10:10:00;;;;;;;25.05;17.52;;;5.70;99.90;;;;;;4998456;28;20101;-89
2023/12/08 10:12:27;;;;;;;27.40;17.60;;;5.70;99.90;;;;;;4996988;28;20050;-87
2023/12/08 10:14:57;;;;;;;30.33;19.02;;;5.80;99.90;;;;;;4998491;28;20027;-88
2023/12/08 10:17:23;;;;;;;33.50;19.65;;;5.80;99.90;;;;;;4997212;28;20502;-88
2023/12/08 10:19:52;;;;;;;32.30;20.35;;;5.80;99.90;;;;;;4997964;28;20026;-87
2023/12/08 10:22:18;;;;;;;33.25;20.75;;;5.80;99.90;;;;;;4996990;28;20030;-87
2023/12/08 10:24:45;;;;;;;34.33;20.85;;;5.80;99.90;;;;;;4998236;28;20041;-87
2023/12/08 10:27:10;;;;;;;34.30;21.20;;;5.80;99.90;;;;;;4996839;28;20034;-88
2023/12/08 10:29:37;;;;;;;34.13;20.13;;;5.80;99.90;;;;;;4996786;28;20031;-88
2023/12/08 10:32:04;;;;;;;32.28;20.65;;;5.80;99.90;;;;;;4996825;28;20026;-88
2023/12/08 10:34:30;;;;;;;38.78;22.02;;;5.80;99.90;;;;;;4997608;28;20466;-87
2023/12/08 10:36:56;;;;;;;34.63;20.50;;;5.90;99.90;;;;;;4998035;28;20068;-88
2023/12/08 10:39:24;;;;;;;36.25;21.58;;;5.90;99.90;;;;;;4996327;28;20066;-89
2023/12/08 10:41:51;;;;;;;37.97;22.05;;;5.90;99.90;;;;;;4997748;28;20081;-88
2023/12/08 10:44:23;;;;;;;34.80;21.48;;;6.00;99.90;;;;;;4996502;28;20033;-89
2023/12/08 10:46:49;;;;;;;38.35;21.92;;;6.00;99.90;;;;;;4998012;28;20030;-88
2023/12/08 10:49:21;;;;;;;40.80;21.85;;;6.10;99.90;;;;;;4996651;28;20084;-85
2023/12/08 10:51:48;;;;;;;38.17;22.67;;;6.00;99.90;;;;;;4997756;28;20489;-87
2023/12/08 10:54:18;;;;;;;39.33;23.23;;;6.10;99.90;;;;;;5016789;28;20045;-82
2023/12/08 10:56:48;;;;;;;44.85;23.38;;;6.10;99.90;;;;;;5002206;28;20041;-87
2023/12/08 10:59:21;;;;;;;37.90;22.13;;;6.20;99.90;;;;;;5019185;28;20086;-89
2023/12/08 11:01:48;;;;;;;37.20;22.65;;;6.10;99.90;;;;;;5004915;28;20023;-88
2023/12/08 11:04:22;;;;;;;40.17;22.77;;;6.20;99.90;;;;;;4997079;28;20057;-88
2023/12/08 11:07:03;;;;;;;42.55;22.58;;;6.20;99.90;;;;;;4996664;28;20105;-90
2023/12/08 11:09:34;;;;;;;44.67;23.83;;;6.20;99.90;;;;;;4997059;28;20026;-89
2023/12/08 11:12:03;;;;;;;42.85;22.98;;;6.20;99.90;;;;;;4997332;28;20062;-88
2023/12/08 11:14:46;;;;;;;39.20;23.20;;;6.20;99.90;;;;;;4996390;28;20026;-83
2023/12/08 11:17:33;;;;;;;46.08;24.35;;;6.20;99.90;;;;;;4997206;28;20018;-88
2023/12/08 11:19:59;;;;;;;39.50;23.08;;;6.20;99.90;;;;;;4997096;28;20038;-88
2023/12/08 11:22:25;;;;;;;43.50;23.17;;;6.20;99.90;;;;;;4996363;28;20034;-89
2023/12/08 11:24:51;;;;;;;42.03;24.00;;;6.20;99.90;;;;;;4997421;28;20030;-88
2023/12/08 11:27:42;;;;;;;44.55;22.98;;;6.30;99.90;;;;;;4996416;28;20485;-88
2023/12/08 11:30:08;;;;;;;;;;;6.30;99.90;;;;;;5018392;28;20026;-89
2023/12/08 11:33:10;;;;;;;47.22;23.55;;;6.30;99.90;;;;;;5019574;28;19929;-87
2023/12/08 11:35:37;;;;;;;46.22;24.95;;;6.40;99.90;;;;;;5019341;28;20018;-86
2023/12/08 11:38:03;;;;;;;43.88;23.73;;;6.30;99.90;;;;;;5002814;28;20027;-86
2023/12/08 11:40:29;;;;;;;46.22;24.58;;;6.40;99.90;;;;;;4996958;28;20053;-88
2023/12/08 11:42:56;;;;;;;48.72;25.00;;;6.50;99.90;;;;;;4995851;28;20030;-87
2023/12/08 11:45:22;;;;;;;53.35;28.65;;;6.50;99.90;;;;;;4995417;28;20347;-88
2023/12/08 11:47:48;;;;;;;43.78;26.02;;;6.50;99.90;;;;;;4979304;28;20026;-87
2023/12/08 11:50:14;;;;;;;48.28;27.90;;;6.50;99.90;;;;;;4995170;28;20042;-88
2023/12/08 11:52:42;;;;;;;49.42;29.13;;;6.60;99.90;;;;;;4994593;28;20033;-87
2023/12/08 11:55:11;;;;;;;48.85;27.17;;;6.60;99.90;;;;;;4994839;28;20026;-89
2023/12/08 11:57:59;;;;;;;47.47;25.25;;;6.60;99.90;;;;;;4995748;28;20204;-88
2023/12/08 12:00:26;;;;;;;47.13;26.25;;;6.60;99.90;;;;;;4995911;28;20030;-89
2023/12/08 12:02:53;;;;;;;43.08;24.80;;;6.70;99.90;;;;;;4978386;28;20060;-88
2023/12/08 12:05:20;;;;;;;46.88;26.88;;;6.70;99.90;;;;;;4978215;28;20118;-87
2023/12/08 12:07:49;;;;;;;47.50;24.92;;;6.70;99.90;;;;;;4994570;28;20438;-87
2023/12/08 12:10:26;;;;;;;44.83;25.17;;;6.70;99.90;;;;;;4993961;28;20363;-88
2023/12/08 12:13:17;;;;;;;49.42;25.70;;;6.70;99.90;;;;;;4994981;28;20065;-89
2023/12/08 12:15:43;;;;;;;48.70;24.90;;;6.80;99.90;;;;;;4993592;28;20169;-87
2023/12/08 12:18:10;;;;;;;48.05;25.85;;;6.80;99.90;;;;;;4995593;28;20491;-87
2023/12/08 12:20:38;;;;;;;47.55;26.15;;;6.80;99.90;;;;;;4995331;28;20072;-87
2023/12/08 12:23:04;;;;;;;46.85;25.85;;;6.90;99.90;;;;;;4994618;28;20125;-88
2023/12/08 12:25:31;;;;;;;43.63;24.85;;;6.90;99.90;;;;;;4994406;28;20063;-85
2023/12/08 12:27:57;;;;;;;45.88;25.10;;;6.90;99.90;;;;;;4994742;28;20033;-86
2023/12/08 12:30:23;;;;;;;42.22;24.92;;;6.90;99.90;;;;;;4995897;28;20113;-87
2023/12/08 12:32:49;;;;;;;43.15;24.10;;;7.00;99.90;;;;;;4994575;28;20065;-88
2023/12/08 12:35:15;;;;;;;40.65;22.92;;;7.00;99.90;;;;;;4978639;28;20073;-87